Butterfly — V7DW2 — position and weather

sailwx.info

Track history (hours):
 
Tides and Currents Weather Stations Pressure Air Temp Water Temp Dewpoint Dewpoint Depression Visibility Wind Speed Wind Dir Waves Ship Positions

Butterfly

Last reported at 2017-Nov-19 22:15 UTC. Time now 2017-Nov-22 16:43 UTC.
Position N 37°31' W 122°12'.

Length 38 m; draft 1.5 m.

Type: High speed craft. MMSI: 538070979.

Date/timePositionNaut miles runAvg speedWind from/ knotsBaromVisibWave heightAir tempDewpointWater temp
2017-Nov-19 22:15N 37°31' W 122°12'0 0.0
2017-Nov-19 21:55N 37°31' W 122°12'0 0.0
2017-Nov-19 21:28N 37°31' W 122°12'1 2.8
2017-Nov-19 20:59N 37°32' W 122°12'1 1.6
2017-Nov-19 20:29N 37°33' W 122°11'0 0.0
2017-Nov-19 15:53N 37°33' W 122°11'0 0.0
2017-Nov-19 06:13N 37°33' W 122°11'417.0
2017-Nov-19 05:58N 37°35' W 122°16'716.0
2017-Nov-19 05:30N 37°42' W 122°19'3 6.4
2017-Nov-19 05:00N 37°45' W 122°18'0 0.0
2017-Nov-19 04:30N 37°45' W 122°18'0 0.0
2017-Nov-19 04:00N 37°45' W 122°18'0 0.0
2017-Nov-19 03:30N 37°45' W 122°18'0 0.0
2017-Nov-19 03:00N 37°45' W 122°18'0 0.0
2017-Nov-19 02:30N 37°45' W 122°18'713.1
2017-Nov-19 02:01N 37°39' W 122°19'816.2
2017-Nov-19 01:30N 37°33' W 122°12'0 0.0
2017-Nov-19 00:26N 37°33' W 122°12'0 0.0
2017-Nov-18 23:42N 37°33' W 122°12'0 0.2
2017-Nov-18 23:28N 37°33' W 122°11'0 0.0
2017-Nov-18 22:59N 37°33' W 122°11'0 0.0
2017-Nov-18 22:28N 37°33' W 122°11'0 0.0
2017-Nov-18 22:00N 37°33' W 122°11'0 0.0
2017-Nov-18 21:29N 37°33' W 122°11'0 0.1
2017-Nov-18 20:58N 37°33' W 122°12'2 4.6
2017-Nov-18 20:30N 37°31' W 122°12'0 0.0
2017-Nov-17 08:59N 37°31' W 122°12'0 0.0
2017-Nov-16 15:53N 37°31' W 122°12'0 0.0
2017-Nov-16 15:23N 37°31' W 122°12'0 0.0
2017-Nov-16 09:17N 37°31' W 122°12'0 0.0
2017-Nov-15 20:26N 37°31' W 122°12'0 0.0
2017-Nov-15 19:53N 37°31' W 122°12'0 0.0
2017-Nov-15 18:05N 37°31' W 122°12'0 0.0
2017-Nov-14 21:14N 37°31' W 122°12'0 0.0
2017-Nov-14 20:56N 37°31' W 122°12'0 0.0
2017-Nov-14 20:26N 37°31' W 122°12'0 0.0
2017-Nov-14 19:50N 37°31' W 122°12'0 0.0
2017-Nov-14 19:23N 37°31' W 122°12'0 0.0
2017-Nov-14 18:59N 37°31' W 122°12'0 0.0
2017-Nov-14 16:14N 37°31' W 122°12'0 0.0
2017-Nov-14 15:59N 37°31' W 122°12'0 0.0
2017-Nov-14 15:05N 37°31' W 122°12'0 0.1
2017-Nov-14 14:59N 37°31' W 122°12'0 0.0
2017-Nov-14 14:23N 37°31' W 122°12'0 0.0
2017-Nov-13 01:41N 37°31' W 122°12'0 0.0
2017-Nov-13 01:23N 37°31' W 122°12'0 0.0
2017-Nov-12 23:53N 37°31' W 122°12'0 0.0
2017-Nov-12 22:23N 37°31' W 122°12'0 0.0
2017-Nov-12 21:59N 37°31' W 122°12'0 0.0
2017-Nov-12 21:29N 37°31' W 122°12'0 0.0
2017-Nov-12 15:29N 37°31' W 122°12'0 0.0
2017-Nov-12 12:53N 37°31' W 122°12'0 0.0
2017-Nov-12 07:26N 37°31' W 122°12'0 0.0
2017-Nov-12 06:11N 37°31' W 122°12'0 0.0
2017-Nov-12 05:11N 37°31' W 122°12'0 0.0
2017-Nov-12 04:53N 37°31' W 122°12'0 0.0
2017-Nov-12 04:29N 37°31' W 122°12'0 0.0
2017-Nov-12 03:35N 37°31' W 122°12'0 0.0
2017-Nov-12 03:23N 37°31' W 122°12'0 0.0
2017-Nov-12 02:59N 37°31' W 122°12'0 0.0
2017-Nov-12 02:29N 37°31' W 122°12'0 0.0
2017-Nov-12 01:23N 37°31' W 122°12'0 0.0
2017-Nov-11 21:17N 37°31' W 122°12'0 0.0
2017-Nov-11 20:05N 37°31' W 122°12'0 0.0
2017-Nov-11 19:59N 37°31' W 122°12'0 0.0
2017-Nov-11 16:11N 37°31' W 122°12'0 0.0
2017-Nov-11 15:59N 37°31' W 122°12'0 0.0
2017-Nov-11 15:23N 37°31' W 122°12'0 0.0
2017-Nov-11 14:59N 37°31' W 122°12'0 0.0
2017-Nov-11 03:17N 37°31' W 122°12'0 0.0
2017-Nov-11 02:56N 37°31' W 122°12'0 0.0
2017-Nov-11 02:29N 37°31' W 122°12'0 0.0
2017-Nov-10 15:35N 37°31' W 122°12'0 0.0
2017-Nov-10 15:17N 37°31' W 122°12'0 0.0
2017-Nov-10 14:59N 37°31' W 122°12'0 0.0
2017-Nov-10 14:29N 37°31' W 122°12'0 0.0
2017-Nov-10 12:59N 37°31' W 122°12'0 0.0
2017-Nov-10 00:23N 37°31' W 122°12'0 0.0
2017-Nov-09 23:29N 37°31' W 122°12'0 0.0
2017-Nov-09 22:35N 37°31' W 122°12'  
Track history (hours):
 
Tides and Currents Weather Stations Pressure Air Temp Water Temp Dewpoint Dewpoint Depression Visibility Wind Speed Wind Dir Waves Ship Positions

Butterfly

Last reported at 2017-Nov-19 22:15 UTC. Time now 2017-Nov-22 16:43 UTC.
Position N 37°31' W 122°12'.

Length 38 m; draft 1.5 m.

Type: High speed craft. MMSI: 538070979.

Date/timePositionNaut miles runAvg speedWind from/ knotsBaromVisibWave heightAir tempDewpointWater temp
2017-Nov-19 22:15N 37°31' W 122°12'0 0.0
2017-Nov-19 21:55N 37°31' W 122°12'0 0.0
2017-Nov-19 21:28N 37°31' W 122°12'1 2.8
2017-Nov-19 20:59N 37°32' W 122°12'1 1.6
2017-Nov-19 20:29N 37°33' W 122°11'0 0.0
2017-Nov-19 15:53N 37°33' W 122°11'0 0.0
2017-Nov-19 06:13N 37°33' W 122°11'417.0
2017-Nov-19 05:58N 37°35' W 122°16'716.0
2017-Nov-19 05:30N 37°42' W 122°19'3 6.4
2017-Nov-19 05:00N 37°45' W 122°18'0 0.0
2017-Nov-19 04:30N 37°45' W 122°18'0 0.0
2017-Nov-19 04:00N 37°45' W 122°18'0 0.0
2017-Nov-19 03:30N 37°45' W 122°18'0 0.0
2017-Nov-19 03:00N 37°45' W 122°18'0 0.0
2017-Nov-19 02:30N 37°45' W 122°18'713.1
2017-Nov-19 02:01N 37°39' W 122°19'816.2
2017-Nov-19 01:30N 37°33' W 122°12'0 0.0
2017-Nov-19 00:26N 37°33' W 122°12'0 0.0
2017-Nov-18 23:42N 37°33' W 122°12'0 0.2
2017-Nov-18 23:28N 37°33' W 122°11'0 0.0
2017-Nov-18 22:59N 37°33' W 122°11'0 0.0
2017-Nov-18 22:28N 37°33' W 122°11'0 0.0
2017-Nov-18 22:00N 37°33' W 122°11'0 0.0
2017-Nov-18 21:29N 37°33' W 122°11'0 0.1
2017-Nov-18 20:58N 37°33' W 122°12'2 4.6
2017-Nov-18 20:30N 37°31' W 122°12'0 0.0
2017-Nov-17 08:59N 37°31' W 122°12'0 0.0
2017-Nov-16 15:53N 37°31' W 122°12'0 0.0
2017-Nov-16 15:23N 37°31' W 122°12'0 0.0
2017-Nov-16 09:17N 37°31' W 122°12'0 0.0
2017-Nov-15 20:26N 37°31' W 122°12'0 0.0
2017-Nov-15 19:53N 37°31' W 122°12'0 0.0
2017-Nov-15 18:05N 37°31' W 122°12'0 0.0
2017-Nov-14 21:14N 37°31' W 122°12'0 0.0
2017-Nov-14 20:56N 37°31' W 122°12'0 0.0
2017-Nov-14 20:26N 37°31' W 122°12'0 0.0
2017-Nov-14 19:50N 37°31' W 122°12'0 0.0
2017-Nov-14 19:23N 37°31' W 122°12'0 0.0
2017-Nov-14 18:59N 37°31' W 122°12'0 0.0
2017-Nov-14 16:14N 37°31' W 122°12'0 0.0
2017-Nov-14 15:59N 37°31' W 122°12'0 0.0
2017-Nov-14 15:05N 37°31' W 122°12'0 0.1
2017-Nov-14 14:59N 37°31' W 122°12'0 0.0
2017-Nov-14 14:23N 37°31' W 122°12'0 0.0
2017-Nov-13 01:41N 37°31' W 122°12'0 0.0
2017-Nov-13 01:23N 37°31' W 122°12'0 0.0
2017-Nov-12 23:53N 37°31' W 122°12'0 0.0
2017-Nov-12 22:23N 37°31' W 122°12'0 0.0
2017-Nov-12 21:59N 37°31' W 122°12'0 0.0
2017-Nov-12 21:29N 37°31' W 122°12'0 0.0
2017-Nov-12 15:29N 37°31' W 122°12'0 0.0
2017-Nov-12 12:53N 37°31' W 122°12'0 0.0
2017-Nov-12 07:26N 37°31' W 122°12'0 0.0
2017-Nov-12 06:11N 37°31' W 122°12'0 0.0
2017-Nov-12 05:11N 37°31' W 122°12'0 0.0
2017-Nov-12 04:53N 37°31' W 122°12'0 0.0
2017-Nov-12 04:29N 37°31' W 122°12'0 0.0
2017-Nov-12 03:35N 37°31' W 122°12'0 0.0
2017-Nov-12 03:23N 37°31' W 122°12'0 0.0
2017-Nov-12 02:59N 37°31' W 122°12'0 0.0
2017-Nov-12 02:29N 37°31' W 122°12'0 0.0
2017-Nov-12 01:23N 37°31' W 122°12'0 0.0
2017-Nov-11 21:17N 37°31' W 122°12'0 0.0
2017-Nov-11 20:05N 37°31' W 122°12'0 0.0
2017-Nov-11 19:59N 37°31' W 122°12'0 0.0
2017-Nov-11 16:11N 37°31' W 122°12'0 0.0
2017-Nov-11 15:59N 37°31' W 122°12'0 0.0
2017-Nov-11 15:23N 37°31' W 122°12'0 0.0
2017-Nov-11 14:59N 37°31' W 122°12'0 0.0
2017-Nov-11 03:17N 37°31' W 122°12'0 0.0
2017-Nov-11 02:56N 37°31' W 122°12'0 0.0
2017-Nov-11 02:29N 37°31' W 122°12'0 0.0
2017-Nov-10 15:35N 37°31' W 122°12'0 0.0
2017-Nov-10 15:17N 37°31' W 122°12'0 0.0
2017-Nov-10 14:59N 37°31' W 122°12'0 0.0
2017-Nov-10 14:29N 37°31' W 122°12'0 0.0
2017-Nov-10 12:59N 37°31' W 122°12'0 0.0
2017-Nov-10 00:23N 37°31' W 122°12'0 0.0
2017-Nov-09 23:29N 37°31' W 122°12'0 0.0
2017-Nov-09 22:35N 37°31' W 122°12'  

Dump ship's entire track history